Byers, Texas
Current Conditions -  °F | °C
As of 3:52 PM on Tuesday 25 Nov 2014 (Local Time) from KSPS Reporting Station
Clear Clear  
Wind Chill: 55°   Ceiling: Unl
Heat Index: 55°   Visibility: 10mi
Dew Point: 25°   Wind: 10mph
Humidity: 31%   Direction: 260°W
Pressure: 30.15"   Gusts: NA
Location:  34.07°N, 98.19°W
Report Text: KSPS 252152Z 26009KT 10SM CLR 13/M04 A3015 RMK AO2 SLP209 T01281039
Loading
Personal Weather Stations






























Interactive Weather Map New forecast layout! Learn more

10-Day Weather Forecast

Advertisements
Track Severe Weather on mobile